sensor_id;sensor_type;location;lat;lon;timestamp;P1;durP1;ratioP1;P2;durP2;ratioP2
62509;SDS011;48558;48.242;11.654;2023-01-16T00:02:22;0.50;;;0.50;;
62509;SDS011;48558;48.242;11.654;2023-01-16T00:06:39;2.03;;;0.75;;
62509;SDS011;48558;48.242;11.654;2023-01-16T00:10:52;0.98;;;0.38;;
62509;SDS011;48558;48.242;11.654;2023-01-16T00:15:05;1.45;;;0.50;;
62509;SDS011;48558;48.242;11.654;2023-01-16T00:19:18;0.50;;;0.43;;
62509;SDS011;48558;48.242;11.654;2023-01-16T00:23:40;0.80;;;0.70;;
62509;SDS011;48558;48.242;11.654;2023-01-16T00:28:03;0.77;;;0.77;;
62509;SDS011;48558;48.242;11.654;2023-01-16T00:32:15;0.43;;;0.43;;
62509;SDS011;48558;48.242;11.654;2023-01-16T00:36:28;0.40;;;0.40;;
62509;SDS011;48558;48.242;11.654;2023-01-16T00:40:40;2.03;;;0.57;;
62509;SDS011;48558;48.242;11.654;2023-01-16T00:44:53;0.43;;;0.43;;
62509;SDS011;48558;48.242;11.654;2023-01-16T00:49:05;0.40;;;0.40;;
62509;SDS011;48558;48.242;11.654;2023-01-16T00:53:18;2.28;;;0.60;;
62509;SDS011;48558;48.242;11.654;2023-01-16T00:57:31;0.20;;;0.20;;
62509;SDS011;48558;48.242;11.654;2023-01-16T01:01:43;0.43;;;0.40;;
62509;SDS011;48558;48.242;11.654;2023-01-16T01:05:56;0.30;;;0.30;;
62509;SDS011;48558;48.242;11.654;2023-01-16T01:10:09;0.30;;;0.30;;
62509;SDS011;48558;48.242;11.654;2023-01-16T01:14:22;1.42;;;0.43;;
62509;SDS011;48558;48.242;11.654;2023-01-16T01:18:34;0.52;;;0.40;;
62509;SDS011;48558;48.242;11.654;2023-01-16T01:22:47;1.15;;;0.60;;
62509;SDS011;48558;48.242;11.654;2023-01-16T01:27:00;2.20;;;0.40;;
62509;SDS011;48558;48.242;11.654;2023-01-16T01:31:13;0.30;;;0.30;;
62509;SDS011;48558;48.242;11.654;2023-01-16T01:35:26;0.63;;;0.50;;
62509;SDS011;48558;48.242;11.654;2023-01-16T01:39:38;1.50;;;0.45;;
62509;SDS011;48558;48.242;11.654;2023-01-16T01:43:52;1.15;;;0.43;;
62509;SDS011;48558;48.242;11.654;2023-01-16T01:52:24;0.40;;;0.40;;
62509;SDS011;48558;48.242;11.654;2023-01-16T01:56:46;0.47;;;0.47;;
62509;SDS011;48558;48.242;11.654;2023-01-16T02:01:07;0.50;;;0.50;;
62509;SDS011;48558;48.242;11.654;2023-01-16T02:05:28;0.77;;;0.50;;
62509;SDS011;48558;48.242;11.654;2023-01-16T02:09:45;0.25;;;0.25;;
62509;SDS011;48558;48.242;11.654;2023-01-16T02:14:05;0.40;;;0.40;;
62509;SDS011;48558;48.242;11.654;2023-01-16T02:18:24;1.50;;;0.70;;
62509;SDS011;48558;48.242;11.654;2023-01-16T02:28:06;2.13;;;0.50;;
62509;SDS011;48558;48.242;11.654;2023-01-16T02:42:12;0.38;;;0.38;;
62509;SDS011;48558;48.242;11.654;2023-01-16T02:46:45;0.37;;;0.37;;
62509;SDS011;48558;48.242;11.654;2023-01-16T02:51:43;0.60;;;0.57;;
62509;SDS011;48558;48.242;11.654;2023-01-16T02:56:03;1.33;;;0.73;;
62509;SDS011;48558;48.242;11.654;2023-01-16T03:13:47;0.63;;;0.63;;
62509;SDS011;48558;48.242;11.654;2023-01-16T03:18:28;0.45;;;0.38;;
62509;SDS011;48558;48.242;11.654;2023-01-16T03:36:45;0.38;;;0.28;;
62509;SDS011;48558;48.242;11.654;2023-01-16T03:41:16;0.35;;;0.35;;
62509;SDS011;48558;48.242;11.654;2023-01-16T03:50:10;0.32;;;0.32;;
62509;SDS011;48558;48.242;11.654;2023-01-16T03:58:54;0.20;;;0.20;;
62509;SDS011;48558;48.242;11.654;2023-01-16T04:03:08;0.38;;;0.38;;
62509;SDS011;48558;48.242;11.654;2023-01-16T04:07:32;0.28;;;0.20;;
62509;SDS011;48558;48.242;11.654;2023-01-16T04:11:57;0.20;;;0.20;;
62509;SDS011;48558;48.242;11.654;2023-01-16T04:16:12;4.18;;;0.80;;
62509;SDS011;48558;48.242;11.654;2023-01-16T04:20:29;0.20;;;0.20;;
62509;SDS011;48558;48.242;11.654;2023-01-16T04:24:43;0.20;;;0.20;;
62509;SDS011;48558;48.242;11.654;2023-01-16T04:28:56;2.83;;;0.38;;
62509;SDS011;48558;48.242;11.654;2023-01-16T04:33:08;0.30;;;0.30;;
62509;SDS011;48558;48.242;11.654;2023-01-16T04:37:21;0.50;;;0.50;;
62509;SDS011;48558;48.242;11.654;2023-01-16T04:41:33;0.20;;;0.20;;
62509;SDS011;48558;48.242;11.654;2023-01-16T04:45:49;0.20;;;0.20;;
62509;SDS011;48558;48.242;11.654;2023-01-16T04:50:02;0.38;;;0.38;;
62509;SDS011;48558;48.242;11.654;2023-01-16T04:54:20;0.47;;;0.47;;
62509;SDS011;48558;48.242;11.654;2023-01-16T04:58:33;0.90;;;0.45;;
62509;SDS011;48558;48.242;11.654;2023-01-16T05:02:46;1.63;;;0.28;;
62509;SDS011;48558;48.242;11.654;2023-01-16T05:06:59;0.47;;;0.47;;
62509;SDS011;48558;48.242;11.654;2023-01-16T05:11:11;0.40;;;0.40;;
62509;SDS011;48558;48.242;11.654;2023-01-16T05:15:23;0.40;;;0.40;;
62509;SDS011;48558;48.242;11.654;2023-01-16T05:19:36;0.40;;;0.40;;
62509;SDS011;48558;48.242;11.654;2023-01-16T05:23:48;0.43;;;0.30;;
62509;SDS011;48558;48.242;11.654;2023-01-16T05:28:01;0.40;;;0.40;;
62509;SDS011;48558;48.242;11.654;2023-01-16T05:32:13;0.63;;;0.38;;
62509;SDS011;48558;48.242;11.654;2023-01-16T05:36:26;0.73;;;0.60;;
62509;SDS011;48558;48.242;11.654;2023-01-16T05:40:48;0.32;;;0.32;;
62509;SDS011;48558;48.242;11.654;2023-01-16T05:45:11;0.25;;;0.25;;
62509;SDS011;48558;48.242;11.654;2023-01-16T05:49:23;0.50;;;0.50;;
62509;SDS011;48558;48.242;11.654;2023-01-16T05:53:36;0.30;;;0.30;;
62509;SDS011;48558;48.242;11.654;2023-01-16T05:57:49;0.30;;;0.30;;
62509;SDS011;48558;48.242;11.654;2023-01-16T06:02:02;1.13;;;0.60;;
62509;SDS011;48558;48.242;11.654;2023-01-16T06:06:14;0.30;;;0.30;;
62509;SDS011;48558;48.242;11.654;2023-01-16T06:10:28;0.63;;;0.50;;
62509;SDS011;48558;48.242;11.654;2023-01-16T06:14:50;0.55;;;0.55;;
62509;SDS011;48558;48.242;11.654;2023-01-16T06:19:03;1.67;;;0.60;;
62509;SDS011;48558;48.242;11.654;2023-01-16T06:23:15;1.00;;;0.60;;
62509;SDS011;48558;48.242;11.654;2023-01-16T06:27:28;0.55;;;0.55;;
62509;SDS011;48558;48.242;11.654;2023-01-16T06:31:41;0.45;;;0.45;;
62509;SDS011;48558;48.242;11.654;2023-01-16T06:35:53;0.50;;;0.50;;
62509;SDS011;48558;48.242;11.654;2023-01-16T06:40:06;0.68;;;0.68;;
62509;SDS011;48558;48.242;11.654;2023-01-16T06:44:22;0.60;;;0.60;;
62509;SDS011;48558;48.242;11.654;2023-01-16T06:48:34;0.77;;;0.50;;
62509;SDS011;48558;48.242;11.654;2023-01-16T06:52:47;0.32;;;0.32;;
62509;SDS011;48558;48.242;11.654;2023-01-16T06:57:00;0.55;;;0.55;;
62509;SDS011;48558;48.242;11.654;2023-01-16T07:01:12;0.47;;;0.47;;
62509;SDS011;48558;48.242;11.654;2023-01-16T07:05:26;0.45;;;0.45;;
62509;SDS011;48558;48.242;11.654;2023-01-16T07:09:42;0.70;;;0.70;;
62509;SDS011;48558;48.242;11.654;2023-01-16T07:13:54;0.77;;;0.77;;
62509;SDS011;48558;48.242;11.654;2023-01-16T07:18:27;0.70;;;0.70;;
62509;SDS011;48558;48.242;11.654;2023-01-16T07:22:58;0.43;;;0.43;;
62509;SDS011;48558;48.242;11.654;2023-01-16T07:27:10;0.57;;;0.57;;
62509;SDS011;48558;48.242;11.654;2023-01-16T07:31:33;0.50;;;0.50;;
62509;SDS011;48558;48.242;11.654;2023-01-16T07:35:46;0.98;;;0.70;;
62509;SDS011;48558;48.242;11.654;2023-01-16T07:39:58;0.52;;;0.50;;
62509;SDS011;48558;48.242;11.654;2023-01-16T07:44:11;0.65;;;0.60;;
62509;SDS011;48558;48.242;11.654;2023-01-16T07:48:24;0.50;;;0.50;;
62509;SDS011;48558;48.242;11.654;2023-01-16T07:52:43;1.50;;;1.00;;
62509;SDS011;48558;48.242;11.654;2023-01-16T07:56:57;0.70;;;0.70;;
62509;SDS011;48558;48.242;11.654;2023-01-16T08:01:11;0.50;;;0.50;;
62509;SDS011;48558;48.242;11.654;2023-01-16T08:05:23;0.65;;;0.65;;
62509;SDS011;48558;48.242;11.654;2023-01-16T08:09:36;0.70;;;0.70;;
62509;SDS011;48558;48.242;11.654;2023-01-16T08:13:49;1.45;;;1.20;;
62509;SDS011;48558;48.242;11.654;2023-01-16T08:18:01;0.85;;;0.85;;
62509;SDS011;48558;48.242;11.654;2023-01-16T08:22:14;0.80;;;0.80;;
62509;SDS011;48558;48.242;11.654;2023-01-16T08:26:26;0.50;;;0.50;;
62509;SDS011;48558;48.242;11.654;2023-01-16T08:30:39;1.02;;;0.93;;
62509;SDS011;48558;48.242;11.654;2023-01-16T08:34:51;1.15;;;1.05;;
62509;SDS011;48558;48.242;11.654;2023-01-16T08:39:14;0.88;;;0.88;;
62509;SDS011;48558;48.242;11.654;2023-01-16T08:43:28;0.77;;;0.75;;
62509;SDS011;48558;48.242;11.654;2023-01-16T08:47:59;0.80;;;0.80;;
62509;SDS011;48558;48.242;11.654;2023-01-16T08:52:31;0.93;;;0.60;;
62509;SDS011;48558;48.242;11.654;2023-01-16T08:56:45;0.52;;;0.52;;
62509;SDS011;48558;48.242;11.654;2023-01-16T09:00:58;0.40;;;0.40;;
62509;SDS011;48558;48.242;11.654;2023-01-16T09:05:13;0.38;;;0.38;;
62509;SDS011;48558;48.242;11.654;2023-01-16T09:09:26;0.47;;;0.47;;
62509;SDS011;48558;48.242;11.654;2023-01-16T09:13:38;0.63;;;0.57;;
62509;SDS011;48558;48.242;11.654;2023-01-16T09:18:03;0.73;;;0.73;;
62509;SDS011;48558;48.242;11.654;2023-01-16T09:22:15;0.45;;;0.45;;
62509;SDS011;48558;48.242;11.654;2023-01-16T09:26:28;1.42;;;0.70;;
62509;SDS011;48558;48.242;11.654;2023-01-16T09:30:44;2.53;;;0.60;;
62509;SDS011;48558;48.242;11.654;2023-01-16T09:34:56;0.35;;;0.35;;
62509;SDS011;48558;48.242;11.654;2023-01-16T09:39:19;0.47;;;0.47;;
62509;SDS011;48558;48.242;11.654;2023-01-16T09:43:46;0.55;;;0.55;;
62509;SDS011;48558;48.242;11.654;2023-01-16T09:54:24;2.10;;;0.60;;
62509;SDS011;48558;48.242;11.654;2023-01-16T09:59:37;0.60;;;0.60;;
62509;SDS011;48558;48.242;11.654;2023-01-16T10:04:37;0.35;;;0.35;;
62509;SDS011;48558;48.242;11.654;2023-01-16T10:18:10;0.40;;;0.40;;
62509;SDS011;48558;48.242;11.654;2023-01-16T10:23:11;0.55;;;0.55;;
62509;SDS011;48558;48.242;11.654;2023-01-16T10:32:19;0.40;;;0.40;;
62509;SDS011;48558;48.242;11.654;2023-01-16T10:36:54;0.50;;;0.50;;
62509;SDS011;48558;48.242;11.654;2023-01-16T10:45:59;0.88;;;0.43;;
62509;SDS011;48558;48.242;11.654;2023-01-16T10:51:01;1.08;;;0.50;;
62509;SDS011;48558;48.242;11.654;2023-01-16T10:55:15;0.50;;;0.50;;
62509;SDS011;48558;48.242;11.654;2023-01-16T10:59:29;0.50;;;0.50;;
62509;SDS011;48558;48.242;11.654;2023-01-16T11:03:47;0.52;;;0.52;;
62509;SDS011;48558;48.242;11.654;2023-01-16T11:08:06;0.25;;;0.25;;
62509;SDS011;48558;48.242;11.654;2023-01-16T11:12:27;0.57;;;0.50;;
62509;SDS011;48558;48.242;11.654;2023-01-16T11:17:23;1.35;;;0.73;;
62509;SDS011;48558;48.242;11.654;2023-01-16T11:21:56;0.30;;;0.30;;
62509;SDS011;48558;48.242;11.654;2023-01-16T11:30:32;0.50;;;0.50;;
62509;SDS011;48558;48.242;11.654;2023-01-16T11:35:01;1.15;;;0.50;;
62509;SDS011;48558;48.242;11.654;2023-01-16T11:39:17;0.60;;;0.55;;
62509;SDS011;48558;48.242;11.654;2023-01-16T11:43:37;0.70;;;0.70;;
62509;SDS011;48558;48.242;11.654;2023-01-16T11:48:08;0.50;;;0.50;;
62509;SDS011;48558;48.242;11.654;2023-01-16T11:52:36;0.47;;;0.47;;
62509;SDS011;48558;48.242;11.654;2023-01-16T11:56:50;0.70;;;0.50;;
62509;SDS011;48558;48.242;11.654;2023-01-16T12:01:21;0.60;;;0.60;;
62509;SDS011;48558;48.242;11.654;2023-01-16T12:06:33;0.52;;;0.52;;
62509;SDS011;48558;48.242;11.654;2023-01-16T12:16:13;0.50;;;0.50;;
62509;SDS011;48558;48.242;11.654;2023-01-16T12:20:59;1.48;;;0.40;;
62509;SDS011;48558;48.242;11.654;2023-01-16T12:44:04;0.50;;;0.50;;
62509;SDS011;48558;48.242;11.654;2023-01-16T12:48:49;1.65;;;0.60;;
62509;SDS011;48558;48.242;11.654;2023-01-16T13:02:36;0.50;;;0.50;;
62509;SDS011;48558;48.242;11.654;2023-01-16T13:07:13;0.63;;;0.63;;
62509;SDS011;48558;48.242;11.654;2023-01-16T13:11:31;5.10;;;4.20;;
62509;SDS011;48558;48.242;11.654;2023-01-16T13:20:55;0.70;;;0.70;;
62509;SDS011;48558;48.242;11.654;2023-01-16T13:29:47;1.48;;;0.70;;
62509;SDS011;48558;48.242;11.654;2023-01-16T13:34:11;0.40;;;0.40;;
62509;SDS011;48558;48.242;11.654;2023-01-16T13:43:35;0.70;;;0.70;;
62509;SDS011;48558;48.242;11.654;2023-01-16T13:48:15;0.50;;;0.50;;
62509;SDS011;48558;48.242;11.654;2023-01-16T13:52:48;0.35;;;0.35;;
62509;SDS011;48558;48.242;11.654;2023-01-16T13:57:02;0.95;;;0.70;;
62509;SDS011;48558;48.242;11.654;2023-01-16T14:01:35;1.25;;;0.52;;
62509;SDS011;48558;48.242;11.654;2023-01-16T14:10:24;1.83;;;1.05;;
62509;SDS011;48558;48.242;11.654;2023-01-16T14:23:30;1.27;;;1.10;;
62509;SDS011;48558;48.242;11.654;2023-01-16T14:28:14;1.15;;;0.80;;
62509;SDS011;48558;48.242;11.654;2023-01-16T14:32:30;3.95;;;1.10;;
62509;SDS011;48558;48.242;11.654;2023-01-16T14:36:44;0.80;;;0.80;;
62509;SDS011;48558;48.242;11.654;2023-01-16T14:41:00;1.00;;;1.00;;
62509;SDS011;48558;48.242;11.654;2023-01-16T14:45:36;2.72;;;1.02;;
62509;SDS011;48558;48.242;11.654;2023-01-16T14:50:14;6.18;;;1.33;;
62509;SDS011;48558;48.242;11.654;2023-01-16T14:54:47;5.15;;;1.60;;
62509;SDS011;48558;48.242;11.654;2023-01-16T14:59:22;1.40;;;1.30;;
62509;SDS011;48558;48.242;11.654;2023-01-16T15:03:41;1.30;;;1.20;;
62509;SDS011;48558;48.242;11.654;2023-01-16T15:07:56;2.58;;;1.15;;
62509;SDS011;48558;48.242;11.654;2023-01-16T15:12:12;1.10;;;1.00;;
62509;SDS011;48558;48.242;11.654;2023-01-16T15:16:29;1.30;;;1.20;;
62509;SDS011;48558;48.242;11.654;2023-01-16T15:21:02;6.63;;;2.40;;
62509;SDS011;48558;48.242;11.654;2023-01-16T15:30:15;4.40;;;2.20;;
62509;SDS011;48558;48.242;11.654;2023-01-16T15:34:31;14.68;;;3.10;;
62509;SDS011;48558;48.242;11.654;2023-01-16T15:38:47;19.40;;;5.78;;
62509;SDS011;48558;48.242;11.654;2023-01-16T15:43:03;6.80;;;2.75;;
62509;SDS011;48558;48.242;11.654;2023-01-16T15:47:39;1.60;;;1.50;;
62509;SDS011;48558;48.242;11.654;2023-01-16T15:52:01;3.10;;;1.95;;
62509;SDS011;48558;48.242;11.654;2023-01-16T15:56:38;21.90;;;5.65;;
62509;SDS011;48558;48.242;11.654;2023-01-16T16:01:05;6.72;;;2.67;;
62509;SDS011;48558;48.242;11.654;2023-01-16T16:05:19;3.22;;;1.70;;
62509;SDS011;48558;48.242;11.654;2023-01-16T16:09:34;10.23;;;2.10;;
62509;SDS011;48558;48.242;11.654;2023-01-16T16:13:57;5.50;;;2.40;;
62509;SDS011;48558;48.242;11.654;2023-01-16T16:18:13;7.78;;;3.10;;
62509;SDS011;48558;48.242;11.654;2023-01-16T16:22:30;6.53;;;3.27;;
62509;SDS011;48558;48.242;11.654;2023-01-16T16:27:05;11.38;;;4.57;;
62509;SDS011;48558;48.242;11.654;2023-01-16T16:31:30;16.75;;;7.00;;
62509;SDS011;48558;48.242;11.654;2023-01-16T16:35:46;8.68;;;2.83;;
62509;SDS011;48558;48.242;11.654;2023-01-16T16:40:11;2.92;;;1.70;;
62509;SDS011;48558;48.242;11.654;2023-01-16T16:44:34;1.85;;;1.58;;
62509;SDS011;48558;48.242;11.654;2023-01-16T16:53:23;1.65;;;1.35;;
62509;SDS011;48558;48.242;11.654;2023-01-16T16:57:41;2.97;;;1.60;;
62509;SDS011;48558;48.242;11.654;2023-01-16T17:01:56;2.17;;;1.88;;
62509;SDS011;48558;48.242;11.654;2023-01-16T17:06:20;6.03;;;3.30;;
62509;SDS011;48558;48.242;11.654;2023-01-16T17:10:39;3.88;;;2.90;;
62509;SDS011;48558;48.242;11.654;2023-01-16T17:14:52;11.52;;;4.43;;
62509;SDS011;48558;48.242;11.654;2023-01-16T17:19:22;7.47;;;4.18;;
62509;SDS011;48558;48.242;11.654;2023-01-16T17:23:43;2.47;;;2.13;;
62509;SDS011;48558;48.242;11.654;2023-01-16T17:27:57;1.52;;;1.42;;
62509;SDS011;48558;48.242;11.654;2023-01-16T17:32:23;2.00;;;1.30;;
62509;SDS011;48558;48.242;11.654;2023-01-16T17:36:43;1.48;;;1.10;;
62509;SDS011;48558;48.242;11.654;2023-01-16T17:40:58;1.20;;;1.10;;
62509;SDS011;48558;48.242;11.654;2023-01-16T17:46:44;1.80;;;1.42;;
62509;SDS011;48558;48.242;11.654;2023-01-16T17:50:57;1.52;;;1.30;;
62509;SDS011;48558;48.242;11.654;2023-01-16T17:55:11;2.45;;;1.58;;
62509;SDS011;48558;48.242;11.654;2023-01-16T18:02:29;1.83;;;1.38;;
62509;SDS011;48558;48.242;11.654;2023-01-16T18:06:41;5.22;;;1.52;;
62509;SDS011;48558;48.242;11.654;2023-01-16T18:10:54;1.63;;;1.52;;
62509;SDS011;48558;48.242;11.654;2023-01-16T18:15:07;3.78;;;1.85;;
62509;SDS011;48558;48.242;11.654;2023-01-16T18:19:39;1.90;;;1.30;;
62509;SDS011;48558;48.242;11.654;2023-01-16T18:23:52;2.05;;;1.27;;
62509;SDS011;48558;48.242;11.654;2023-01-16T18:28:06;1.38;;;1.27;;
62509;SDS011;48558;48.242;11.654;2023-01-16T18:32:18;1.35;;;1.08;;
62509;SDS011;48558;48.242;11.654;2023-01-16T18:36:31;1.42;;;1.05;;
62509;SDS011;48558;48.242;11.654;2023-01-16T18:40:44;1.15;;;1.10;;
62509;SDS011;48558;48.242;11.654;2023-01-16T18:49:28;0.93;;;0.93;;
62509;SDS011;48558;48.242;11.654;2023-01-16T18:54:14;1.15;;;1.00;;
62509;SDS011;48558;48.242;11.654;2023-01-16T18:58:48;1.13;;;1.03;;
62509;SDS011;48558;48.242;11.654;2023-01-16T19:03:19;1.63;;;1.40;;
62509;SDS011;48558;48.242;11.654;2023-01-16T19:07:32;2.90;;;0.60;;
62509;SDS011;48558;48.242;11.654;2023-01-16T19:11:50;2.05;;;0.90;;
62509;SDS011;48558;48.242;11.654;2023-01-16T19:16:06;1.95;;;1.05;;
62509;SDS011;48558;48.242;11.654;2023-01-16T19:20:37;0.63;;;0.63;;
62509;SDS011;48558;48.242;11.654;2023-01-16T19:24:50;0.60;;;0.60;;
62509;SDS011;48558;48.242;11.654;2023-01-16T19:29:02;2.03;;;0.80;;
62509;SDS011;48558;48.242;11.654;2023-01-16T19:33:15;0.95;;;0.85;;
62509;SDS011;48558;48.242;11.654;2023-01-16T19:37:29;0.50;;;0.50;;
62509;SDS011;48558;48.242;11.654;2023-01-16T19:41:41;0.32;;;0.32;;
62509;SDS011;48558;48.242;11.654;2023-01-16T19:46:12;0.93;;;0.30;;
62509;SDS011;48558;48.242;11.654;2023-01-16T19:50:43;1.20;;;0.40;;
62509;SDS011;48558;48.242;11.654;2023-01-16T19:54:56;0.20;;;0.20;;
62509;SDS011;48558;48.242;11.654;2023-01-16T19:59:15;0.43;;;0.43;;
62509;SDS011;48558;48.242;11.654;2023-01-16T20:03:28;0.50;;;0.50;;
62509;SDS011;48558;48.242;11.654;2023-01-16T20:07:41;0.60;;;0.60;;
62509;SDS011;48558;48.242;11.654;2023-01-16T20:11:53;0.15;;;0.15;;
62509;SDS011;48558;48.242;11.654;2023-01-16T20:16:24;0.10;;;0.10;;
62509;SDS011;48558;48.242;11.654;2023-01-16T20:20:37;0.15;;;0.15;;
62509;SDS011;48558;48.242;11.654;2023-01-16T20:24:50;1.33;;;0.57;;
62509;SDS011;48558;48.242;11.654;2023-01-16T20:29:03;0.32;;;0.32;;
62509;SDS011;48558;48.242;11.654;2023-01-16T20:33:15;0.30;;;0.30;;
62509;SDS011;48558;48.242;11.654;2023-01-16T20:37:29;0.47;;;0.47;;
62509;SDS011;48558;48.242;11.654;2023-01-16T20:41:42;0.20;;;0.20;;
62509;SDS011;48558;48.242;11.654;2023-01-16T20:46:23;1.15;;;0.57;;
62509;SDS011;48558;48.242;11.654;2023-01-16T20:50:36;1.10;;;0.68;;
62509;SDS011;48558;48.242;11.654;2023-01-16T20:54:48;0.90;;;0.47;;
62509;SDS011;48558;48.242;11.654;2023-01-16T20:59:01;0.40;;;0.40;;
62509;SDS011;48558;48.242;11.654;2023-01-16T21:03:13;0.40;;;0.40;;
62509;SDS011;48558;48.242;11.654;2023-01-16T21:07:25;0.60;;;0.40;;
62509;SDS011;48558;48.242;11.654;2023-01-16T21:11:40;3.67;;;0.60;;
62509;SDS011;48558;48.242;11.654;2023-01-16T21:16:15;0.10;;;0.10;;
62509;SDS011;48558;48.242;11.654;2023-01-16T21:20:46;0.40;;;0.40;;
62509;SDS011;48558;48.242;11.654;2023-01-16T21:25:18;0.30;;;0.30;;
62509;SDS011;48558;48.242;11.654;2023-01-16T21:29:34;0.30;;;0.20;;
62509;SDS011;48558;48.242;11.654;2023-01-16T21:33:46;0.30;;;0.30;;
62509;SDS011;48558;48.242;11.654;2023-01-16T21:38:02;0.38;;;0.38;;
62509;SDS011;48558;48.242;11.654;2023-01-16T21:42:14;0.20;;;0.20;;
62509;SDS011;48558;48.242;11.654;2023-01-16T21:46:45;0.50;;;0.50;;
62509;SDS011;48558;48.242;11.654;2023-01-16T21:50:58;0.52;;;0.28;;
62509;SDS011;48558;48.242;11.654;2023-01-16T21:55:13;0.15;;;0.15;;
62509;SDS011;48558;48.242;11.654;2023-01-16T21:59:25;0.30;;;0.30;;
62509;SDS011;48558;48.242;11.654;2023-01-16T22:03:39;0.50;;;0.50;;
62509;SDS011;48558;48.242;11.654;2023-01-16T22:07:51;0.28;;;0.28;;
62509;SDS011;48558;48.242;11.654;2023-01-16T22:12:04;1.75;;;0.30;;
62509;SDS011;48558;48.242;11.654;2023-01-16T22:16:36;0.20;;;0.20;;
62509;SDS011;48558;48.242;11.654;2023-01-16T22:21:07;0.20;;;0.20;;
62509;SDS011;48558;48.242;11.654;2023-01-16T22:25:24;0.43;;;0.40;;
62509;SDS011;48558;48.242;11.654;2023-01-16T22:29:40;1.33;;;0.40;;
62509;SDS011;48558;48.242;11.654;2023-01-16T22:33:53;2.33;;;0.65;;
62509;SDS011;48558;48.242;11.654;2023-01-16T22:38:06;0.30;;;0.30;;
62509;SDS011;48558;48.242;11.654;2023-01-16T22:42:18;0.30;;;0.30;;
62509;SDS011;48558;48.242;11.654;2023-01-16T22:46:31;0.30;;;0.30;;
62509;SDS011;48558;48.242;11.654;2023-01-16T22:50:43;2.33;;;0.68;;
62509;SDS011;48558;48.242;11.654;2023-01-16T22:54:56;1.05;;;0.55;;
62509;SDS011;48558;48.242;11.654;2023-01-16T22:59:19;0.40;;;0.40;;
62509;SDS011;48558;48.242;11.654;2023-01-16T23:03:31;0.43;;;0.30;;
62509;SDS011;48558;48.242;11.654;2023-01-16T23:07:44;0.30;;;0.30;;
62509;SDS011;48558;48.242;11.654;2023-01-16T23:11:56;0.30;;;0.30;;
62509;SDS011;48558;48.242;11.654;2023-01-16T23:16:09;1.30;;;0.28;;
62509;SDS011;48558;48.242;11.654;2023-01-16T23:20:22;0.50;;;0.47;;
62509;SDS011;48558;48.242;11.654;2023-01-16T23:24:44;0.38;;;0.25;;
62509;SDS011;48558;48.242;11.654;2023-01-16T23:28:57;0.90;;;0.57;;
62509;SDS011;48558;48.242;11.654;2023-01-16T23:33:12;0.65;;;0.30;;
62509;SDS011;48558;48.242;11.654;2023-01-16T23:37:25;1.00;;;0.32;;
62509;SDS011;48558;48.242;11.654;2023-01-16T23:41:38;0.30;;;0.30;;
62509;SDS011;48558;48.242;11.654;2023-01-16T23:46:10;0.43;;;0.43;;
62509;SDS011;48558;48.242;11.654;2023-01-16T23:50:22;0.47;;;0.47;;
62509;SDS011;48558;48.242;11.654;2023-01-16T23:54:35;1.88;;;0.30;;
62509;SDS011;48558;48.242;11.654;2023-01-16T23:58:49;0.35;;;0.35;;
